createdAt,value
2018-08-03T06:40:18.590Z,25.39
2018-08-03T06:41:21.255Z,25.47
2018-08-03T06:42:23.799Z,25.55
2018-08-03T06:43:26.306Z,24.91
2018-08-03T06:44:29.775Z,25.64
2018-08-03T06:45:32.783Z,25.69
2018-08-03T06:46:38.331Z,25.78
2018-08-03T06:47:41.857Z,25.83
2018-08-03T06:48:44.377Z,25.90
2018-08-03T06:49:50.540Z,25.98
2018-08-03T06:50:53.036Z,26.04
2018-08-03T06:51:55.866Z,26.09
2018-08-03T06:52:58.408Z,26.13
2018-08-03T06:54:00.970Z,26.23
2018-08-03T06:55:03.503Z,26.23
2018-08-03T06:56:06.058Z,26.24
2018-08-03T06:57:08.609Z,26.25
2018-08-03T06:58:11.454Z,26.30
2018-08-03T06:59:15.007Z,26.34
2018-08-03T07:00:17.573Z,26.36
2018-08-03T07:01:20.231Z,26.42
2018-08-03T07:02:22.792Z,26.43
2018-08-03T07:03:26.427Z,26.45
2018-08-03T07:04:29.328Z,26.44
2018-08-03T07:05:31.936Z,26.44
2018-08-03T07:06:34.487Z,26.39
2018-08-03T07:07:37.949Z,26.37
2018-08-03T07:08:40.453Z,25.59
2018-08-03T07:09:42.982Z,26.50
2018-08-03T07:10:48.071Z,26.59
2018-08-03T07:11:50.591Z,26.67
2018-08-03T07:12:53.127Z,26.72
2018-08-03T07:13:55.677Z,26.75
2018-08-03T07:14:58.257Z,26.74
2018-08-03T07:16:00.806Z,26.80
2018-08-03T07:17:03.617Z,26.84
2018-08-03T07:18:06.140Z,26.87
2018-08-03T07:19:08.672Z,26.86
2018-08-03T07:20:11.573Z,26.87
2018-08-03T07:21:15.311Z,26.84
2018-08-03T07:22:18.832Z,26.85
2018-08-03T07:23:21.699Z,26.06
2018-08-03T07:24:24.283Z,26.83
2018-08-03T07:25:26.847Z,26.88
2018-08-03T07:26:29.410Z,26.91
2018-08-03T07:27:32.923Z,26.89
2018-08-03T07:28:35.476Z,26.93
2018-08-03T07:29:39.288Z,26.91
2018-08-03T07:30:41.837Z,26.89
2018-08-03T07:31:44.715Z,26.89
2018-08-03T07:32:47.276Z,26.86
2018-08-03T07:33:49.771Z,26.86
2018-08-03T09:10:57.407Z,26.63
2018-08-03T09:12:00.698Z,26.72
2018-08-03T09:13:06.640Z,26.87
2018-08-03T09:14:09.781Z,27.02
2018-08-03T09:15:12.844Z,27.13
2018-08-03T09:16:16.667Z,27.24
2018-08-03T09:17:20.174Z,27.29
2018-08-03T09:18:22.762Z,27.34
2018-08-03T09:19:25.317Z,27.36
2018-08-03T09:20:27.851Z,27.36
2018-08-03T09:21:31.439Z,27.37
2018-08-03T09:22:34.247Z,27.38
2018-08-03T09:23:37.401Z,27.41
2018-08-03T09:24:40.571Z,27.42
2018-08-03T09:25:43.283Z,27.42
2018-08-03T09:26:46.431Z,27.43
2018-08-03T09:27:48.949Z,27.40
2018-08-03T09:28:51.803Z,27.35
2018-08-03T09:29:54.378Z,27.33
2018-08-03T09:30:57.257Z,27.32
2018-08-03T09:31:59.801Z,27.36
2018-08-03T09:33:02.362Z,27.41
2018-08-03T09:34:05.502Z,27.44
2018-08-03T09:35:08.467Z,27.44
2018-08-03T09:36:11.040Z,27.46
2018-08-03T09:37:13.573Z,27.45
2018-08-03T09:38:16.087Z,27.47
2018-08-03T09:39:19.292Z,27.46
2018-08-03T09:40:25.788Z,27.49
2018-08-03T09:41:29.363Z,27.51
2018-08-03T09:42:35.444Z,27.47
2018-08-03T09:43:38.473Z,27.47
2018-08-03T09:44:40.981Z,27.54
2018-08-03T09:45:43.800Z,27.55
2018-08-03T09:46:47.363Z,27.54
2018-08-03T09:47:50.218Z,27.54
2018-08-03T09:48:52.824Z,27.54
2018-08-03T09:49:55.410Z,27.52
2018-08-03T09:51:00.554Z,26.74
2018-08-03T09:52:07.184Z,27.54
2018-08-03T09:53:09.757Z,27.55
2018-08-03T09:54:12.277Z,27.56
2018-08-03T09:55:15.866Z,27.59
2018-08-03T09:56:18.410Z,27.59
2018-08-03T09:57:21.024Z,27.59
2018-08-03T09:58:25.306Z,27.57
2018-08-03T09:59:29.530Z,27.56
2018-08-03T10:00:33.612Z,27.56
2018-08-03T10:01:37.000Z,27.56
2018-08-03T10:02:40.210Z,27.53
2018-08-03T10:03:43.380Z,27.52
2018-08-03T10:04:47.367Z,27.53
2018-08-03T10:05:53.797Z,27.55
2018-08-03T10:06:56.351Z,27.56
2018-08-03T10:07:58.952Z,27.59
2018-08-03T10:09:01.515Z,26.89
2018-08-03T10:10:04.901Z,27.54
2018-08-03T10:11:07.745Z,27.50
2018-08-03T10:12:12.344Z,27.50
2018-08-03T10:13:16.129Z,26.91
2018-08-03T10:14:18.699Z,27.34
2018-08-03T10:15:22.340Z,27.59
2018-08-03T10:16:25.887Z,27.60
2018-08-03T10:17:28.729Z,27.65
2018-08-03T10:18:31.299Z,27.66
2018-08-03T10:19:33.869Z,27.68
2018-08-03T10:20:36.400Z,27.66
2018-08-03T10:21:39.439Z,27.68
2018-08-03T10:22:41.968Z,27.67
2018-08-03T10:23:44.802Z,27.68
2018-08-03T10:24:47.330Z,27.39
2018-08-03T10:25:49.864Z,27.66
2018-08-03T10:26:52.407Z,27.66
2018-08-03T10:27:55.411Z,27.67
2018-08-03T10:28:59.564Z,27.65
2018-08-03T10:30:02.383Z,27.63
2018-08-03T10:31:05.952Z,27.66
2018-08-03T10:32:08.482Z,27.67
2018-08-03T10:33:11.857Z,27.68
2018-08-03T10:34:14.396Z,27.71
2018-08-03T10:35:17.921Z,27.72
2018-08-03T10:36:22.562Z,27.75
2018-08-03T10:37:25.083Z,27.78
2018-08-03T10:38:27.662Z,27.75
2018-08-03T10:39:30.522Z,27.72
2018-08-03T10:40:33.053Z,27.72
2018-08-03T10:41:35.749Z,27.71
2018-08-03T10:42:38.763Z,27.70
2018-08-03T19:57:41.248Z,27.26
2018-08-03T19:58:44.632Z,27.35
2018-08-03T19:59:47.341Z,27.53
2018-08-03T20:00:49.888Z,27.67
2018-08-03T20:01:52.440Z,27.77
2018-08-03T20:02:56.292Z,27.86
2018-08-03T20:03:59.035Z,27.92
2018-08-03T20:05:05.032Z,27.95
2018-08-03T20:06:07.622Z,27.98
2018-08-03T20:07:10.737Z,28.03
2018-08-03T20:08:16.391Z,28.04
2018-08-03T20:09:19.324Z,27.43
2018-08-03T20:10:21.861Z,27.22
2018-08-03T20:11:24.400Z,28.08
2018-08-03T20:12:28.076Z,28.09
2018-08-03T20:13:30.658Z,28.10
2018-08-03T20:14:33.595Z,28.12
2018-08-03T20:15:37.211Z,28.11
2018-08-03T20:16:41.718Z,28.11
2018-08-03T20:17:44.418Z,28.11
2018-08-03T20:18:48.571Z,28.10
2018-08-03T21:04:55.261Z,27.39
2018-08-03T21:05:57.816Z,27.49
2018-08-03T21:07:00.337Z,26.77
2018-08-03T21:08:02.924Z,27.79
2018-08-03T21:09:05.472Z,27.91
2018-08-03T21:10:09.202Z,27.98
2018-08-03T21:11:12.452Z,28.03
2018-08-03T21:12:15.451Z,28.09
2018-08-03T21:13:19.580Z,27.26
2018-08-03T21:14:26.524Z,28.12
2018-08-03T21:15:30.271Z,28.13
2018-08-03T21:16:36.515Z,28.14
2018-08-03T21:17:39.570Z,28.14
2018-08-03T21:18:42.670Z,28.15
2018-08-03T21:19:46.541Z,28.16
2018-08-03T21:20:49.558Z,28.16
2018-08-03T21:21:52.608Z,28.17
2018-08-03T21:22:55.305Z,27.53
2018-08-03T21:23:58.935Z,28.17
2018-08-03T21:25:01.613Z,28.18
2018-08-03T21:26:04.164Z,27.51
2018-08-03T21:27:06.704Z,28.21
2018-08-03T21:28:09.479Z,28.22
2018-08-03T21:29:11.977Z,28.22
2018-08-03T21:30:14.580Z,28.22
2018-08-03T21:31:17.172Z,28.23
2018-08-03T21:32:20.215Z,28.23
